Time;durP1;ratioP1;P1;durP2;ratioP2;P2;SDS_P1;SDS_P2;PMS_P1;PMS_P2;Temp;Humidity;BMP_temperature;BMP_pressure;BME280_temperature;BME280_humidity;BME280_pressure;Samples;Min_cycle;Max_cycle;Signal;HPM_P1;HPM_P2
2021/04/16 00:00:37;;;;;;;1.48;1.08;;;18.10;33.80;;;;;;4976227;28;20181;-79
2021/04/16 00:03:04;;;;;;;1.30;0.93;;;18.10;33.80;;;;;;4974046;29;20162;-78
2021/04/16 00:05:31;;;;;;;2.78;1.00;;;18.10;33.90;;;;;;4974345;28;20182;-78
2021/04/16 00:07:57;;;;;;;2.13;0.95;;;18.00;33.90;;;;;;4974156;29;20165;-79
2021/04/16 00:10:45;;;;;;;3.80;0.90;;;18.10;33.90;;;;;;4975837;28;20172;-79
2021/04/16 00:13:12;;;;;;;3.88;1.02;;;18.10;33.80;;;;;;4973882;29;20157;-79
2021/04/16 00:15:40;;;;;;;1.58;1.08;;;18.10;33.90;;;;;;4974995;28;20169;-77
2021/04/16 00:18:08;;;;;;;2.40;1.05;;;18.10;33.90;;;;;;4973734;29;20146;-79
2021/04/16 00:20:34;;;;;;;1.70;0.88;;;18.00;33.90;;;;;;4973981;29;20182;-79
2021/04/16 00:22:59;;;;;;;1.75;0.90;;;18.00;33.90;;;;;;4973657;29;20176;-79
2021/04/16 00:25:29;;;;;;;2.97;1.10;;;18.00;33.90;;;;;;4957940;29;20153;-79
2021/04/16 00:27:57;;;;;;;2.05;1.10;;;18.00;33.90;;;;;;4973568;29;20631;-79
2021/04/16 00:30:29;;;;;;;2.78;1.02;;;18.10;33.80;;;;;;4973950;29;20161;-79
2021/04/16 00:32:56;;;;;;;3.80;1.13;;;18.10;33.80;;;;;;4958117;29;20208;-78
2021/04/16 00:35:23;;;;;;;1.77;1.08;;;18.10;33.90;;;;;;4957315;29;20217;-78
2021/04/16 00:37:49;;;;;;;1.45;0.88;;;18.10;33.90;;;;;;4973122;29;20665;-78
2021/04/16 00:40:21;;;;;;;1.77;1.00;;;18.10;34.00;;;;;;4973488;29;20186;-79
2021/04/16 00:42:57;;;;;;;2.05;0.90;;;18.10;33.90;;;;;;4958152;29;20153;-78
2021/04/16 00:45:24;;;;;;;2.22;1.17;;;18.10;33.90;;;;;;4973071;29;20166;-79
2021/04/16 00:47:51;;;;;;;3.03;0.95;;;18.10;33.90;;;;;;4972776;29;20146;-79
2021/04/16 00:50:21;;;;;;;2.78;1.10;;;18.10;33.90;;;;;;4971170;29;20181;-79
2021/04/16 00:52:47;;;;;;;2.63;1.20;;;18.00;33.90;;;;;;4970416;29;20840;-79
2021/04/16 00:55:14;;;;;;;3.15;1.17;;;18.00;34.00;;;;;;4973881;28;20253;-79
2021/04/16 00:57:39;;;;;;;1.83;0.93;;;18.00;34.00;;;;;;4958504;29;20228;-79
2021/04/16 01:00:06;;;;;;;1.63;1.10;;;18.00;34.00;;;;;;4958693;29;20193;-79
2021/04/16 01:02:31;;;;;;;1.67;1.02;;;18.00;34.10;;;;;;4974196;29;20161;-79
2021/04/16 01:05:00;;;;;;;1.67;1.00;;;18.00;34.10;;;;;;4975199;28;20169;-78
2021/04/16 01:07:28;;;;;;;1.63;0.82;;;18.00;34.10;;;;;;4976476;29;20164;-79
2021/04/16 01:09:54;;;;;;;2.40;1.00;;;18.00;34.10;;;;;;4976202;29;20149;-79
2021/04/16 01:12:20;;;;;;;1.38;0.82;;;18.00;34.10;;;;;;4960968;29;20169;-78
2021/04/16 01:14:48;;;;;;;1.70;0.93;;;18.00;34.10;;;;;;4976242;29;20164;-79
2021/04/16 01:17:14;;;;;;;1.20;1.00;;;18.00;34.20;;;;;;4948509;29;20157;-79
2021/04/16 01:19:43;;;;;;;2.85;0.90;;;18.00;34.10;;;;;;4980320;29;20161;-79
2021/04/16 01:22:27;;;;;;;1.85;1.00;;;18.00;34.10;;;;;;4980056;29;20154;-79
2021/04/16 01:24:56;;;;;;;3.45;1.08;;;18.00;34.20;;;;;;4965442;29;20153;-79
2021/04/16 01:27:25;;;;;;;1.98;1.00;;;18.00;34.20;;;;;;4964018;29;20170;-79
2021/04/16 01:29:51;;;;;;;2.88;1.10;;;18.00;34.20;;;;;;4980119;29;20248;-78
2021/04/16 01:32:25;;;;;;;2.65;1.08;;;18.00;34.30;;;;;;4980673;28;20187;-79
2021/04/16 01:34:52;;;;;;;2.88;0.88;;;18.00;34.20;;;;;;4963011;29;20184;-79
2021/04/16 01:37:19;;;;;;;2.20;0.93;;;18.00;34.20;;;;;;4963569;29;20154;-79
2021/04/16 01:39:45;;;;;;;2.08;0.98;;;18.00;34.20;;;;;;4963052;29;20165;-79
2021/04/16 01:42:12;;;;;;;3.03;1.10;;;18.00;34.20;;;;;;4978782;29;20687;-79
2021/04/16 01:44:41;;;;;;;1.33;0.85;;;18.00;34.20;;;;;;4962895;29;20161;-79
2021/04/16 01:47:10;;;;;;;1.98;1.10;;;18.00;34.30;;;;;;4980375;28;20157;-79
2021/04/16 01:49:44;;;;;;;2.97;1.05;;;18.00;34.30;;;;;;4980016;28;20237;-78
2021/04/16 01:52:12;;;;;;;1.77;1.00;;;18.00;34.30;;;;;;4979721;28;20297;-79
2021/04/16 01:54:39;;;;;;;2.75;0.90;;;17.90;34.30;;;;;;4979449;28;20180;-79
2021/04/16 01:57:08;;;;;;;1.35;1.00;;;18.00;34.30;;;;;;4979118;28;20221;-79
2021/04/16 01:59:36;;;;;;;2.15;0.90;;;18.00;34.20;;;;;;4979748;28;20536;-79
2021/04/16 02:02:06;;;;;;;1.42;1.00;;;18.00;34.20;;;;;;4979238;28;20636;-79
2021/04/16 02:04:32;;;;;;;1.92;1.00;;;18.00;34.30;;;;;;4979511;28;20158;-79
2021/04/16 02:06:58;;;;;;;2.35;1.10;;;18.00;34.30;;;;;;4977524;29;20246;-79
2021/04/16 02:09:26;;;;;;;1.10;1.00;;;17.90;34.30;;;;;;4977689;29;20142;-79
2021/04/16 02:11:53;;;;;;;3.03;1.20;;;17.90;34.30;;;;;;4961952;29;20158;-79
2021/04/16 02:14:21;;;;;;;1.85;0.90;;;18.00;34.40;;;;;;4978819;28;20531;-79
2021/04/16 02:16:50;;;;;;;2.08;1.00;;;17.90;34.40;;;;;;4978994;28;20146;-79
2021/04/16 02:19:17;;;;;;;1.73;0.68;;;18.00;34.30;;;;;;4961397;29;20165;-79
2021/04/16 02:21:44;;;;;;;1.83;0.90;;;17.90;34.30;;;;;;4977332;29;20165;-80
2021/04/16 02:24:10;;;;;;;2.10;0.88;;;17.90;34.40;;;;;;4961563;29;20248;-79
2021/04/16 02:26:37;;;;;;;2.70;1.00;;;17.90;34.40;;;;;;4978942;28;20648;-80
2021/04/16 02:29:06;;;;;;;0.85;0.80;;;17.90;34.40;;;;;;4977435;28;20162;-79
2021/04/16 02:31:44;;;;;;;3.17;0.98;;;17.90;34.40;;;;;;4978036;28;20533;-79
2021/04/16 02:34:20;;;;;;;0.98;0.90;;;17.90;34.50;;;;;;4977084;28;20232;-79
2021/04/16 02:36:47;;;;;;;2.35;0.90;;;17.90;34.50;;;;;;4973971;29;20168;-78
2021/04/16 02:39:13;;;;;;;1.70;0.93;;;17.90;34.50;;;;;;4958180;29;20145;-78
2021/04/16 02:41:39;;;;;;;1.42;0.90;;;17.90;34.50;;;;;;4974276;29;20271;-79
2021/04/16 02:44:05;;;;;;;1.70;0.93;;;17.90;34.60;;;;;;4959115;29;20165;-79
2021/04/16 02:46:35;;;;;;;2.10;0.98;;;17.90;34.60;;;;;;4974208;29;20142;-78
2021/04/16 02:49:01;;;;;;;2.88;1.00;;;17.90;34.50;;;;;;4973369;29;20221;-78
2021/04/16 02:51:27;;;;;;;2.30;0.90;;;17.90;34.50;;;;;;4976224;28;20208;-79
2021/04/16 02:53:52;;;;;;;2.45;1.05;;;17.90;34.50;;;;;;4976360;28;20158;-79
2021/04/16 02:56:18;;;;;;;2.75;1.00;;;17.90;34.50;;;;;;4975910;28;20205;-79
2021/04/16 02:58:44;;;;;;;3.42;1.05;;;17.90;34.60;;;;;;4975737;28;20142;-78
2021/04/16 03:01:09;;;;;;;1.42;1.10;;;17.90;34.60;;;;;;4975419;28;20734;-78
2021/04/16 03:03:35;;;;;;;3.17;1.20;;;17.90;34.60;;;;;;4976161;28;20146;-78
2021/04/16 03:06:02;;;;;;;2.45;1.00;;;17.90;34.60;;;;;;4974185;29;20165;-78
2021/04/16 03:08:28;;;;;;;1.75;0.95;;;17.90;34.60;;;;;;4956763;29;20134;-78
2021/04/16 03:10:55;;;;;;;3.28;1.17;;;17.90;34.60;;;;;;4941271;29;20164;-78
2021/04/16 03:13:23;;;;;;;3.45;0.90;;;17.90;34.60;;;;;;4972998;29;20162;-79
2021/04/16 03:15:50;;;;;;;2.45;1.15;;;17.90;34.50;;;;;;4973706;29;20157;-78
2021/04/16 03:18:25;;;;;;;1.40;0.80;;;17.90;34.60;;;;;;4972960;29;20168;-79
2021/04/16 03:20:54;;;;;;;1.88;0.90;;;17.90;34.60;;;;;;4973295;29;20579;-78
2021/04/16 03:23:21;;;;;;;1.23;0.80;;;17.90;34.60;;;;;;4957221;29;20193;-78
2021/04/16 03:25:49;;;;;;;1.80;0.90;;;17.90;34.60;;;;;;4975251;28;20160;-78
2021/04/16 03:28:16;;;;;;;1.40;0.85;;;17.90;34.60;;;;;;4974218;29;20164;-79
2021/04/16 03:30:42;;;;;;;1.65;0.98;;;17.90;34.70;;;;;;4973210;29;20173;-79
2021/04/16 03:33:07;;;;;;;1.83;0.90;;;17.90;34.60;;;;;;4956852;29;20161;-78
2021/04/16 03:35:35;;;;;;;1.15;0.98;;;17.90;34.60;;;;;;4957156;29;20162;-79
2021/04/16 03:38:01;;;;;;;1.17;0.80;;;17.90;34.70;;;;;;4974941;28;20188;-79
2021/04/16 03:40:29;;;;;;;1.80;1.05;;;17.90;34.80;;;;;;4975415;28;20217;-79
2021/04/16 03:42:54;;;;;;;2.15;0.80;;;17.90;34.70;;;;;;4974963;28;20153;-79
2021/04/16 03:45:21;;;;;;;1.05;0.80;;;17.90;34.70;;;;;;4976421;28;20242;-79
2021/04/16 03:47:47;;;;;;;1.33;0.90;;;17.80;34.80;;;;;;4978462;28;20181;-78
2021/04/16 03:50:14;;;;;;;3.65;1.13;;;17.90;34.70;;;;;;4975108;29;20141;-78
2021/04/16 03:52:45;;;;;;;2.35;1.00;;;17.90;34.70;;;;;;4975168;28;20228;-78
2021/04/16 03:55:13;;;;;;;3.47;0.95;;;17.80;34.80;;;;;;4975452;29;20149;-78
2021/04/16 03:57:43;;;;;;;1.70;0.70;;;17.80;34.80;;;;;;4974740;29;20249;-78
2021/04/16 04:00:11;;;;;;;1.17;1.00;;;17.80;34.90;;;;;;4975966;28;20182;-78
2021/04/16 04:02:37;;;;;;;1.25;1.00;;;17.80;34.90;;;;;;4975015;29;20168;-78
2021/04/16 04:05:07;;;;;;;1.10;0.77;;;17.90;34.80;;;;;;4976160;28;20180;-78
2021/04/16 04:07:33;;;;;;;1.67;0.80;;;17.80;34.80;;;;;;4975083;28;20181;-78
2021/04/16 04:09:58;;;;;;;1.52;0.80;;;17.80;34.80;;;;;;4974663;29;20216;-78
2021/04/16 04:12:31;;;;;;;1.30;0.80;;;17.90;34.70;;;;;;4975105;29;20158;-79
2021/04/16 04:15:00;;;;;;;2.28;1.00;;;17.90;34.50;;;;;;4959858;29;20161;-78
2021/04/16 04:17:32;;;;;;;3.63;0.98;;;18.00;34.40;;;;;;4974922;29;20177;-78
2021/04/16 04:20:00;;;;;;;1.33;0.70;;;18.00;34.20;;;;;;4975403;29;20165;-78
2021/04/16 04:22:34;;;;;;;2.90;0.80;;;18.10;34.20;;;;;;4976371;28;20221;-78
2021/04/16 04:25:05;;;;;;;2.17;0.85;;;18.00;34.30;;;;;;4957892;29;20533;-79
2021/04/16 04:27:39;;;;;;;1.95;1.00;;;18.00;34.30;;;;;;4976660;28;20157;-78
2021/04/16 04:30:07;;;;;;;1.55;0.98;;;18.00;34.50;;;;;;4976035;28;20157;-78
2021/04/16 04:32:34;;;;;;;2.47;1.15;;;17.90;34.60;;;;;;4958720;29;20158;-79
2021/04/16 04:35:01;;;;;;;1.65;0.90;;;17.90;34.50;;;;;;4976045;28;20162;-79
2021/04/16 04:37:32;;;;;;;0.90;0.77;;;18.00;34.50;;;;;;4974204;29;20246;-79
2021/04/16 04:40:03;;;;;;;2.20;0.85;;;18.00;34.50;;;;;;4974131;29;20158;-79
2021/04/16 04:42:32;;;;;;;1.70;0.90;;;17.90;34.50;;;;;;4974220;29;20165;-78
2021/04/16 04:45:02;;;;;;;2.15;1.00;;;18.00;34.50;;;;;;4974240;29;20605;-78
2021/04/16 04:47:30;;;;;;;2.42;0.80;;;18.00;34.60;;;;;;4973771;28;20157;-78
2021/04/16 04:49:57;;;;;;;1.02;0.75;;;18.00;34.40;;;;;;4975193;28;20637;-78
2021/04/16 04:52:26;;;;;;;1.20;0.73;;;18.00;34.20;;;;;;4975590;28;20221;-79
2021/04/16 04:54:57;;;;;;;1.58;0.90;;;18.10;34.30;;;;;;4973289;29;20178;-79
2021/04/16 04:57:27;;;;;;;1.92;0.90;;;18.00;34.30;;;;;;4972155;29;20187;-79
2021/04/16 05:00:01;;;;;;;1.58;0.88;;;18.10;34.30;;;;;;4957357;29;20153;-79
2021/04/16 05:02:28;;;;;;;1.38;0.80;;;18.00;34.30;;;;;;4974399;29;20165;-79
2021/04/16 05:04:57;;;;;;;0.95;0.77;;;18.00;34.30;;;;;;4974339;29;20609;-79
2021/04/16 05:07:28;;;;;;;2.13;0.70;;;18.00;34.30;;;;;;4976197;29;20166;-79
2021/04/16 05:09:54;;;;;;;1.23;0.80;;;18.10;34.20;;;;;;4976124;28;20692;-78
2021/04/16 05:12:22;;;;;;;1.55;0.82;;;18.10;34.20;;;;;;4975545;28;20158;-79
2021/04/16 05:14:47;;;;;;;2.42;0.95;;;18.10;34.20;;;;;;4975731;28;20161;-78
2021/04/16 05:17:13;;;;;;;0.68;0.68;;;18.00;34.20;;;;;;4958576;29;20141;-78
2021/04/16 05:19:39;;;;;;;1.95;0.77;;;18.10;34.10;;;;;;4975974;28;20282;-78
2021/04/16 05:22:09;;;;;;;3.40;1.00;;;18.00;34.20;;;;;;4973456;29;20197;-78
2021/04/16 05:24:38;;;;;;;1.50;0.80;;;18.10;34.20;;;;;;4975313;28;20174;-79
2021/04/16 05:27:12;;;;;;;1.42;0.80;;;18.00;34.20;;;;;;4974408;28;20164;-78
2021/04/16 05:29:39;;;;;;;1.73;1.00;;;18.00;34.20;;;;;;4974040;28;20154;-78
2021/04/16 05:32:07;;;;;;;0.98;0.70;;;18.10;34.10;;;;;;4971960;29;20162;-78
2021/04/16 05:34:37;;;;;;;3.47;0.85;;;18.10;34.10;;;;;;4973058;29;20158;-78
2021/04/16 05:37:12;;;;;;;1.77;0.80;;;18.10;34.10;;;;;;4974991;28;20166;-79
2021/04/16 05:39:43;;;;;;;1.42;0.70;;;18.10;34.10;;;;;;4973036;29;20148;-78
2021/04/16 05:42:11;;;;;;;2.30;0.70;;;18.10;34.20;;;;;;4974307;28;20256;-78
2021/04/16 05:44:40;;;;;;;2.05;0.90;;;18.10;34.10;;;;;;4957122;29;20170;-79
2021/04/16 05:47:08;;;;;;;1.80;0.80;;;18.10;34.20;;;;;;4941761;29;20165;-78
2021/04/16 05:49:33;;;;;;;1.13;0.80;;;18.10;34.10;;;;;;4975183;28;20197;-79
2021/04/16 05:51:59;;;;;;;1.55;0.90;;;18.10;34.00;;;;;;4975503;28;20228;-78
2021/04/16 05:54:28;;;;;;;2.60;0.82;;;18.20;33.90;;;;;;4974697;28;20221;-79
2021/04/16 05:56:57;;;;;;;1.60;0.80;;;18.20;34.00;;;;;;4975487;28;20145;-78
2021/04/16 05:59:30;;;;;;;1.42;0.75;;;18.20;34.00;;;;;;4976471;28;20210;-79
2021/04/16 06:01:59;;;;;;;1.92;0.80;;;18.20;33.90;;;;;;4977937;28;20343;-79
2021/04/16 06:04:27;;;;;;;0.93;0.70;;;18.20;34.00;;;;;;4975994;29;20213;-79
2021/04/16 06:06:55;;;;;;;1.35;0.80;;;18.20;33.90;;;;;;4976788;29;20166;-78
2021/04/16 06:09:23;;;;;;;1.25;0.80;;;18.20;34.10;;;;;;4959972;29;20169;-79
2021/04/16 06:11:49;;;;;;;2.20;0.65;;;18.20;34.00;;;;;;4977631;28;20158;-78
2021/04/16 06:14:14;;;;;;;2.50;0.70;;;18.20;33.90;;;;;;4976923;28;20172;-78
2021/04/16 06:16:40;;;;;;;2.90;0.90;;;18.20;34.00;;;;;;4978338;28;20134;-78
2021/04/16 06:19:06;;;;;;;3.50;1.00;;;18.30;33.90;;;;;;4976758;29;20605;-78
2021/04/16 06:21:32;;;;;;;1.75;1.10;;;18.30;33.80;;;;;;4976072;29;20204;-78
2021/04/16 06:23:57;;;;;;;1.85;0.80;;;18.40;33.70;;;;;;4959881;29;20177;-78
2021/04/16 06:26:24;;;;;;;3.80;0.70;;;18.40;33.70;;;;;;4975519;28;20636;-78
2021/04/16 06:28:50;;;;;;;2.50;0.85;;;18.40;33.60;;;;;;4976242;29;20170;-78
2021/04/16 06:31:18;;;;;;;3.00;0.90;;;18.40;33.70;;;;;;4978561;28;20162;-78
2021/04/16 06:33:44;;;;;;;1.55;0.70;;;18.40;33.80;;;;;;4975868;29;20229;-78
2021/04/16 06:36:10;;;;;;;1.90;0.98;;;18.30;33.80;;;;;;4978049;28;20176;-78
2021/04/16 06:38:39;;;;;;;2.08;0.80;;;18.40;33.70;;;;;;4977733;28;20638;-78
2021/04/16 06:41:26;;;;;;;1.70;0.80;;;18.40;33.70;;;;;;4976915;28;20185;-77
2021/04/16 06:44:42;;;;;;;1.05;0.70;;;18.30;33.80;;;;;;4975805;29;20495;-77
2021/04/16 06:47:39;;;;;;;3.47;0.90;;;18.30;33.90;;;;;;4976814;29;20162;-77
2021/04/16 06:50:15;;;;;;;3.35;0.85;;;18.40;33.80;;;;;;4975015;29;20166;-77
2021/04/16 06:52:49;;;;;;;1.52;0.68;;;18.30;33.80;;;;;;4975675;28;20239;-77
2021/04/16 06:55:36;;;;;;;1.08;0.63;;;18.30;33.90;;;;;;4975687;28;20142;-77
2021/04/16 06:58:12;;;;;;;2.72;0.90;;;18.30;34.00;;;;;;4978566;29;20620;-77
2021/04/16 07:01:03;;;;;;;2.83;0.70;;;18.20;34.10;;;;;;4978367;29;20223;-77
2021/04/16 07:03:31;;;;;;;1.23;0.70;;;18.30;34.00;;;;;;4978526;29;20225;-77
2021/04/16 07:06:06;;;;;;;2.50;0.63;;;18.30;34.00;;;;;;4979106;28;20177;-77
2021/04/16 07:08:39;;;;;;;1.02;0.50;;;18.20;34.10;;;;;;4979465;29;20192;-77
2021/04/16 07:11:30;;;;;;;1.15;0.73;;;18.20;34.20;;;;;;4963937;29;20229;-77
2021/04/16 07:13:59;;;;;;;0.95;0.60;;;18.10;34.20;;;;;;4979268;28;20236;-78
2021/04/16 07:16:27;;;;;;;2.58;0.70;;;18.10;34.20;;;;;;4979687;29;20138;-78
2021/04/16 07:19:17;;;;;;;2.33;0.77;;;18.20;34.20;;;;;;4979932;28;20164;-78
2021/04/16 07:21:43;;;;;;;1.50;0.75;;;18.20;34.20;;;;;;4977933;29;20233;-77
2021/04/16 07:24:19;;;;;;;3.67;0.70;;;18.20;34.20;;;;;;4977634;29;20160;-78
2021/04/16 07:26:51;;;;;;;1.60;0.65;;;18.20;34.30;;;;;;4975730;28;20172;-78
2021/04/16 07:29:39;;;;;;;1.83;0.80;;;18.20;34.10;;;;;;4978410;28;20217;-79
2021/04/16 07:32:25;;;;;;;0.65;0.47;;;18.20;34.10;;;;;;4977714;28;20216;-78
2021/04/16 07:34:52;;;;;;;3.38;0.80;;;18.20;34.10;;;;;;4978213;28;20154;-78
2021/04/16 07:37:22;;;;;;;1.23;0.80;;;18.30;34.20;;;;;;4978228;29;20133;-78
2021/04/16 07:40:10;;;;;;;0.60;0.60;;;18.30;34.00;;;;;;4977640;29;20598;-78
2021/04/16 07:42:38;;;;;;;1.27;0.70;;;18.40;33.90;;;;;;4976540;28;20237;-79
2021/04/16 07:45:10;;;;;;;1.13;0.70;;;18.30;33.90;;;;;;4976358;28;20544;-78
2021/04/16 07:47:37;;;;;;;1.75;0.80;;;18.40;33.90;;;;;;4975470;28;20154;-78
2021/04/16 07:50:10;;;;;;;1.45;0.60;;;18.40;33.90;;;;;;4972651;29;20157;-78
2021/04/16 07:52:46;;;;;;;1.58;0.68;;;18.40;33.90;;;;;;4973322;29;20315;-79
2021/04/16 07:55:34;;;;;;;1.50;0.70;;;18.40;33.90;;;;;;4959300;29;20152;-79
2021/04/16 07:58:26;;;;;;;1.38;0.70;;;18.40;33.90;;;;;;4976424;28;20172;-78
2021/04/16 08:00:53;;;;;;;2.25;0.55;;;18.40;33.90;;;;;;4973311;29;20216;-78
2021/04/16 08:03:23;;;;;;;2.03;0.90;;;18.40;33.90;;;;;;4974915;29;20181;-79
2021/04/16 08:05:51;;;;;;;0.95;0.70;;;18.40;33.90;;;;;;4972538;29;20185;-78
2021/04/16 08:08:21;;;;;;;1.08;0.70;;;18.40;33.90;;;;;;4974741;29;20181;-78
2021/04/16 08:11:12;;;;;;;1.88;0.80;;;18.40;34.00;;;;;;4973288;29;20165;-78
2021/04/16 08:13:41;;;;;;;1.45;0.80;;;18.40;33.90;;;;;;4975312;29;20177;-78
2021/04/16 08:16:34;;;;;;;1.52;0.80;;;18.40;33.90;;;;;;4975731;28;20213;-77
2021/04/16 08:19:14;;;;;;;1.17;0.63;;;18.40;34.00;;;;;;4972470;29;20161;-78
2021/04/16 08:21:49;;;;;;;0.60;0.60;;;18.40;33.90;;;;;;4970229;29;20232;-77
2021/04/16 08:24:36;;;;;;;0.95;0.70;;;18.40;34.10;;;;;;4970482;29;20157;-78
2021/04/16 08:27:15;;;;;;;2.28;0.85;;;18.40;34.00;;;;;;4954455;29;20165;-78
2021/04/16 08:30:12;;;;;;;2.95;0.90;;;18.40;33.90;;;;;;4955943;29;20268;-78
2021/04/16 08:33:01;;;;;;;2.80;0.70;;;18.40;33.90;;;;;;4970835;29;20188;-77
2021/04/16 08:38:21;;;;;;;1.55;0.90;;;18.40;33.90;;;;;;4978655;28;20194;-78
2021/04/16 08:41:11;;;;;;;0.93;0.75;;;18.40;33.90;;;;;;5085504;23;20244;-78
2021/04/16 08:46:32;;;;;;;1.58;0.80;;;18.40;33.90;;;;;;4978517;28;20205;-77
2021/04/16 08:49:14;;;;;;;2.58;0.75;;;18.40;33.90;;;;;;4963474;28;20169;-78
2021/04/16 08:54:27;;;;;;;0.85;0.63;;;18.50;33.70;;;;;;5015487;23;20234;-78
2021/04/16 09:02:22;;;;;;;2.22;0.80;;;18.50;33.80;;;;;;4939638;29;20245;-77
2021/04/16 09:04:54;;;;;;;0.50;0.50;;;18.50;33.70;;;;;;4966832;23;20159;-77
2021/04/16 09:07:41;;;;;;;1.08;0.60;;;18.50;33.60;;;;;;4962533;28;20205;-79
2021/04/16 09:10:29;;;;;;;1.80;0.73;;;18.50;33.60;;;;;;4979284;28;20166;-77
2021/04/16 09:15:33;;;;;;;1.10;0.60;;;18.50;33.60;;;;;;4987771;23;20244;-78
2021/04/16 09:18:02;;;;;;;1.08;0.80;;;18.50;33.70;;;;;;4979077;28;20178;-77
2021/04/16 09:20:34;;;;;;;1.20;0.70;;;18.50;33.70;;;;;;4979137;28;20221;-78
2021/04/16 09:23:05;;;;;;;1.25;0.70;;;18.40;33.90;;;;;;5296219;23;20220;-78
2021/04/16 09:25:44;;;;;;;0.90;0.70;;;18.40;33.80;;;;;;5017289;23;20228;-77
2021/04/16 09:28:33;;;;;;;1.20;0.70;;;18.40;33.80;;;;;;4977288;29;20153;-80
2021/04/16 09:33:44;;;;;;;1.08;0.73;;;18.50;33.70;;;;;;4987892;23;20240;-77
2021/04/16 09:36:27;;;;;;;0.73;0.70;;;18.40;33.70;;;;;;4978596;28;20157;-76
2021/04/16 09:38:56;;;;;;;1.15;0.70;;;18.40;33.80;;;;;;4983187;28;20170;-77
2021/04/16 09:41:23;;;;;;;1.67;0.90;;;18.30;33.80;;;;;;4966354;28;20227;-77
2021/04/16 09:43:54;;;;;;;0.80;0.75;;;18.30;33.90;;;;;;4982481;28;20189;-77
2021/04/16 09:46:38;;;;;;;0.88;0.70;;;18.40;33.80;;;;;;4965456;29;20193;-77
2021/04/16 09:49:09;;;;;;;0.65;0.65;;;18.40;33.50;;;;;;4983292;28;20165;-77
2021/04/16 09:51:46;;;;;;;0.73;0.57;;;18.50;33.30;;;;;;4982949;28;20161;-78
2021/04/16 09:57:12;;;;;;;1.33;0.70;;;18.50;33.40;;;;;;4943033;29;20277;-77
2021/04/16 09:59:42;;;;;;;1.88;0.80;;;18.50;33.50;;;;;;4943832;29;20255;-77
2021/04/16 10:02:25;;;;;;;1.60;0.90;;;18.40;33.50;;;;;;4928221;29;20214;-78
2021/04/16 10:05:07;;;;;;;1.27;0.73;;;18.40;33.60;;;;;;4942433;29;20159;-78
2021/04/16 10:07:52;;;;;;;0.65;0.65;;;18.40;33.60;;;;;;4944854;29;20150;-78
2021/04/16 10:10:48;;;;;;;0.50;0.50;;;18.40;33.60;;;;;;4944642;29;20147;-78
2021/04/16 10:13:18;;;;;;;1.20;0.60;;;18.40;33.50;;;;;;4941229;29;20167;-78
2021/04/16 10:15:52;;;;;;;1.75;0.70;;;18.40;33.30;;;;;;4944816;29;20147;-78
2021/04/16 10:18:48;;;;;;;1.60;0.55;;;18.30;33.40;;;;;;5053847;23;20308;-78
2021/04/16 10:21:17;;;;;;;1.17;0.65;;;18.30;33.30;;;;;;4963867;28;20237;-78
2021/04/16 10:24:41;;;;;;;0.75;0.60;;;18.40;33.00;;;;;;4962001;29;20188;-78
2021/04/16 10:37:27;;;;;;;1.42;0.68;;;18.30;33.20;;;;;;5494803;23;20232;-78
2021/04/16 11:20:28;;;;;;;0.80;0.70;;;18.60;32.10;;;;;;4941354;29;20257;-78
2021/04/16 12:40:14;;;;;;;0.80;0.70;;;18.60;31.60;;;;;;4939821;29;20219;-78
2021/04/16 12:42:42;;;;;;;0.63;0.60;;;18.60;31.50;;;;;;4923511;29;20157;-78
2021/04/16 12:45:13;;;;;;;1.83;0.68;;;18.60;31.50;;;;;;4939960;29;20175;-77
2021/04/16 12:47:39;;;;;;;1.42;1.00;;;18.50;31.60;;;;;;4939561;29;20665;-78
2021/04/16 12:50:05;;;;;;;1.90;0.80;;;18.60;31.50;;;;;;4938628;29;20151;-78
2021/04/16 12:52:32;;;;;;;1.45;0.82;;;18.60;31.30;;;;;;4923073;29;20493;-78
2021/04/16 12:55:00;;;;;;;0.70;0.70;;;18.60;31.40;;;;;;4938650;29;20250;-78
2021/04/16 12:57:40;;;;;;;0.63;0.60;;;18.60;31.30;;;;;;4938148;29;20235;-78
2021/04/16 13:00:22;;;;;;;0.98;0.55;;;18.60;31.20;;;;;;4938165;29;20146;-79
2021/04/16 13:03:17;;;;;;;0.73;0.70;;;18.60;31.30;;;;;;4938468;29;20167;-79
2021/04/16 13:05:50;;;;;;;0.80;0.77;;;18.70;31.20;;;;;;4938220;29;20192;-79
2021/04/16 13:08:16;;;;;;;1.02;0.70;;;18.70;31.10;;;;;;4936812;29;20155;-79
2021/04/16 13:10:45;;;;;;;1.00;0.63;;;18.60;31.20;;;;;;4937562;29;20170;-79
2021/04/16 13:13:11;;;;;;;0.73;0.70;;;18.60;31.10;;;;;;4939649;29;20214;-79
2021/04/16 13:15:37;;;;;;;0.75;0.60;;;18.60;31.10;;;;;;4939582;29;20185;-78
2021/04/16 13:18:32;;;;;;;0.77;0.70;;;18.50;31.20;;;;;;4940600;29;20175;-79
2021/04/16 13:20:58;;;;;;;0.50;0.50;;;18.60;31.00;;;;;;4940230;29;20241;-79
2021/04/16 13:23:29;;;;;;;2.10;0.80;;;18.60;30.80;;;;;;4940428;29;20242;-79
2021/04/16 13:25:57;;;;;;;0.60;0.50;;;18.60;30.80;;;;;;4940634;29;20175;-79
2021/04/16 13:28:23;;;;;;;1.02;0.80;;;18.70;30.80;;;;;;4942131;29;20163;-79
2021/04/16 13:30:49;;;;;;;1.67;0.68;;;18.70;30.90;;;;;;4940416;29;20163;-79
2021/04/16 13:33:17;;;;;;;1.05;0.80;;;18.70;30.80;;;;;;4940131;29;20190;-79
2021/04/16 13:35:46;;;;;;;1.13;0.80;;;18.60;30.80;;;;;;4939837;29;20269;-80
2021/04/16 14:27:01;;;;;;;0.73;0.60;;;18.80;30.10;;;;;;2472436;23;21828;-79
2021/04/16 14:32:14;;;;;;;1.30;0.60;;;18.80;30.10;;;;;;5114434;23;20244;-78
2021/04/16 15:00:35;;;;;;;2.13;0.90;;;18.80;30.00;;;;;;5422821;23;20248;-77
2021/04/16 15:20:37;;;;;;;1.25;0.85;;;18.80;30.00;;;;;;4937461;29;20268;-76
2021/04/16 15:23:11;;;;;;;3.60;0.70;;;18.80;30.30;;;;;;4923093;29;20287;-77
2021/04/16 15:25:52;;;;;;;3.08;0.70;;;18.90;30.10;;;;;;4923837;29;20190;-78
2021/04/16 15:28:41;;;;;;;4.32;0.90;;;18.80;30.00;;;;;;4940156;29;20178;-77
2021/04/16 15:31:29;;;;;;;1.63;1.08;;;18.80;30.80;;;;;;4939892;29;20239;-77
2021/04/16 15:48:55;;;;;;;2.65;0.70;;;18.90;30.10;;;;;;5735945;23;21289;-79
2021/04/16 15:51:30;;;;;;;1.08;0.80;;;18.90;30.00;;;;;;5228465;23;20247;-78
2021/04/16 16:02:31;;;;;;;2.05;0.80;;;19.00;29.40;;;;;;5350395;23;20280;-77
2021/04/16 16:07:36;;;;;;;3.30;0.80;;;19.00;29.70;;;;;;5026723;23;20248;-78
2021/04/16 16:10:05;;;;;;;3.28;0.80;;;19.00;29.50;;;;;;4961873;28;20238;-78
2021/04/16 16:12:36;;;;;;;1.00;0.57;;;19.00;29.30;;;;;;4947230;29;20212;-78
2021/04/16 16:15:31;;;;;;;1.27;0.80;;;19.00;30.00;;;;;;4970493;29;20228;-79
2021/04/16 16:17:58;;;;;;;2.67;0.77;;;19.00;29.60;;;;;;4942373;29;20154;-79
2021/04/16 16:20:29;;;;;;;1.17;0.73;;;19.00;29.90;;;;;;4940115;29;20268;-80
2021/04/16 16:23:05;;;;;;;1.05;0.88;;;18.90;29.70;;;;;;4957450;29;20237;-78
2021/04/16 16:25:32;;;;;;;1.35;0.80;;;18.90;29.60;;;;;;4959456;29;20169;-78
2021/04/16 16:28:07;;;;;;;1.55;0.73;;;18.90;29.60;;;;;;4942525;29;20166;-78
2021/04/16 16:30:34;;;;;;;2.20;0.90;;;18.90;29.50;;;;;;4960948;29;20188;-80
2021/04/16 16:33:14;;;;;;;4.68;0.80;;;18.90;29.60;;;;;;4976974;29;20153;-78
2021/04/16 16:35:48;;;;;;;5.68;0.95;;;18.90;29.40;;;;;;4978677;28;20145;-79
2021/04/16 16:38:22;;;;;;;2.47;0.70;;;18.90;29.50;;;;;;4977495;28;20655;-78
2021/04/16 16:40:49;;;;;;;5.30;0.90;;;18.90;29.60;;;;;;4959756;29;20240;-78
2021/04/16 16:46:20;;;;;;;4.70;1.13;;;18.90;29.30;;;;;;5078659;23;20244;-77
2021/04/16 16:48:53;;;;;;;5.75;1.30;;;18.90;29.10;;;;;;4961662;29;20176;-77
2021/04/16 16:51:34;;;;;;;15.63;1.45;;;18.90;29.10;;;;;;4979650;28;20188;-77
2021/04/16 16:54:04;;;;;;;15.27;1.98;;;18.90;29.30;;;;;;5037103;23;20252;-78
2021/04/16 17:12:27;;;;;;;10.90;1.67;;;18.90;29.40;;;;;;5766841;23;20230;-78
2021/04/16 17:25:35;;;;;;;19.83;1.95;;;18.90;29.50;;;;;;4938581;29;20224;-77
2021/04/16 17:28:01;;;;;;;14.88;1.73;;;18.90;29.60;;;;;;5232748;23;20247;-78
2021/04/16 17:30:42;;;;;;;14.30;1.70;;;19.00;29.50;;;;;;4972019;29;20177;-79
2021/04/16 17:33:14;;;;;;;11.48;1.45;;;19.00;29.60;;;;;;4955609;29;20162;-79
2021/04/16 17:35:48;;;;;;;9.90;1.30;;;18.90;29.70;;;;;;4937749;29;20170;-79
2021/04/16 17:38:16;;;;;;;12.48;1.50;;;18.90;29.60;;;;;;4971866;29;20238;-79
2021/04/16 17:40:42;;;;;;;11.00;1.90;;;18.90;29.60;;;;;;4956183;29;20190;-80
2021/04/16 17:43:25;;;;;;;10.48;2.10;;;18.90;29.70;;;;;;4955909;29;20189;-80
2021/04/16 17:45:52;;;;;;;18.38;1.58;;;18.90;29.80;;;;;;4956138;29;20173;-79
2021/04/16 17:48:20;;;;;;;16.25;1.75;;;18.80;29.80;;;;;;4973471;28;20185;-80
2021/04/16 17:51:09;;;;;;;22.52;1.95;;;18.90;29.60;;;;;;4958394;29;20168;-80
2021/04/16 17:53:37;;;;;;;12.65;1.90;;;18.90;29.90;;;;;;4974180;29;20169;-80
2021/04/16 17:56:05;;;;;;;20.35;2.00;;;18.80;29.90;;;;;;4957486;29;20605;-80
2021/04/16 17:58:35;;;;;;;10.30;1.73;;;18.80;29.80;;;;;;4940637;29;20162;-80
2021/04/16 18:01:07;;;;;;;13.63;1.60;;;18.80;29.80;;;;;;4942815;29;20194;-79
2021/04/16 18:03:40;;;;;;;11.27;1.73;;;18.80;29.70;;;;;;4958013;29;20181;-79
2021/04/16 18:06:10;;;;;;;7.18;2.40;;;18.80;29.50;;;;;;4976088;29;20165;-80
2021/04/16 18:08:38;;;;;;;7.43;1.40;;;18.80;29.50;;;;;;4943094;29;20595;-80